sensor_id;sensor_type;location;lat;lon;timestamp;temperature;humidity
42421;DHT22;28063;48.140;11.588;2022-07-23T00:01:59;24.60;68.10
42421;DHT22;28063;48.140;11.588;2022-07-23T00:04:25;24.60;68.00
42421;DHT22;28063;48.140;11.588;2022-07-23T00:06:51;24.50;68.00
42421;DHT22;28063;48.140;11.588;2022-07-23T00:09:16;24.60;67.90
42421;DHT22;28063;48.140;11.588;2022-07-23T00:11:42;24.50;67.90
42421;DHT22;28063;48.140;11.588;2022-07-23T00:14:07;24.50;67.90
42421;DHT22;28063;48.140;11.588;2022-07-23T00:16:33;24.40;67.80
42421;DHT22;28063;48.140;11.588;2022-07-23T00:18:59;24.40;68.40
42421;DHT22;28063;48.140;11.588;2022-07-23T00:21:26;24.40;67.80
42421;DHT22;28063;48.140;11.588;2022-07-23T00:23:52;24.30;67.80
42421;DHT22;28063;48.140;11.588;2022-07-23T00:26:17;24.30;67.80
42421;DHT22;28063;48.140;11.588;2022-07-23T00:28:43;24.20;67.50
42421;DHT22;28063;48.140;11.588;2022-07-23T00:31:09;24.20;67.40
42421;DHT22;28063;48.140;11.588;2022-07-23T00:33:34;24.10;67.50
42421;DHT22;28063;48.140;11.588;2022-07-23T00:36:00;24.10;67.50
42421;DHT22;28063;48.140;11.588;2022-07-23T00:38:26;24.10;67.50
42421;DHT22;28063;48.140;11.588;2022-07-23T00:40:51;24.10;67.70
42421;DHT22;28063;48.140;11.588;2022-07-23T00:43:20;24.10;67.80
42421;DHT22;28063;48.140;11.588;2022-07-23T00:45:46;24.00;68.00
42421;DHT22;28063;48.140;11.588;2022-07-23T00:48:11;24.10;68.00
42421;DHT22;28063;48.140;11.588;2022-07-23T00:50:37;24.00;68.20
42421;DHT22;28063;48.140;11.588;2022-07-23T00:53:03;24.00;68.40
42421;DHT22;28063;48.140;11.588;2022-07-23T00:55:29;24.00;68.30
42421;DHT22;28063;48.140;11.588;2022-07-23T00:57:55;24.10;68.00
42421;DHT22;28063;48.140;11.588;2022-07-23T01:00:22;24.10;67.80
42421;DHT22;28063;48.140;11.588;2022-07-23T01:02:47;24.20;67.90
42421;DHT22;28063;48.140;11.588;2022-07-23T01:05:13;24.20;67.90
42421;DHT22;28063;48.140;11.588;2022-07-23T01:07:39;24.20;67.80
42421;DHT22;28063;48.140;11.588;2022-07-23T01:10:06;24.20;67.90
42421;DHT22;28063;48.140;11.588;2022-07-23T01:12:52;24.10;67.90
42421;DHT22;28063;48.140;11.588;2022-07-23T01:15:17;24.20;67.80
42421;DHT22;28063;48.140;11.588;2022-07-23T01:17:43;24.20;67.80
42421;DHT22;28063;48.140;11.588;2022-07-23T01:20:09;24.20;67.90
42421;DHT22;28063;48.140;11.588;2022-07-23T01:22:34;24.20;68.60
42421;DHT22;28063;48.140;11.588;2022-07-23T01:25:00;24.20;69.10
42421;DHT22;28063;48.140;11.588;2022-07-23T01:27:26;24.20;69.40
42421;DHT22;28063;48.140;11.588;2022-07-23T01:29:51;24.20;69.40
42421;DHT22;28063;48.140;11.588;2022-07-23T01:32:18;24.20;67.20
42421;DHT22;28063;48.140;11.588;2022-07-23T01:34:43;24.20;66.40
42421;DHT22;28063;48.140;11.588;2022-07-23T01:37:09;24.00;66.20
42421;DHT22;28063;48.140;11.588;2022-07-23T01:39:35;23.60;67.70
42421;DHT22;28063;48.140;11.588;2022-07-23T01:42:00;23.10;67.90
42421;DHT22;28063;48.140;11.588;2022-07-23T01:44:26;22.80;68.10
42421;DHT22;28063;48.140;11.588;2022-07-23T01:46:51;22.60;69.60
42421;DHT22;28063;48.140;11.588;2022-07-23T01:49:17;22.30;70.70
42421;DHT22;28063;48.140;11.588;2022-07-23T01:51:43;22.10;72.60
42421;DHT22;28063;48.140;11.588;2022-07-23T01:54:27;21.90;73.70
42421;DHT22;28063;48.140;11.588;2022-07-23T01:56:53;21.80;75.30
42421;DHT22;28063;48.140;11.588;2022-07-23T01:59:19;21.70;76.30
42421;DHT22;28063;48.140;11.588;2022-07-23T02:01:45;21.50;77.60
42421;DHT22;28063;48.140;11.588;2022-07-23T02:04:11;21.50;78.30
42421;DHT22;28063;48.140;11.588;2022-07-23T02:06:36;21.30;79.20
42421;DHT22;28063;48.140;11.588;2022-07-23T02:09:02;21.20;80.40
42421;DHT22;28063;48.140;11.588;2022-07-23T02:11:28;21.10;82.60
42421;DHT22;28063;48.140;11.588;2022-07-23T02:13:54;20.80;87.90
42421;DHT22;28063;48.140;11.588;2022-07-23T02:16:19;20.40;90.50
42421;DHT22;28063;48.140;11.588;2022-07-23T02:18:45;20.10;92.60
42421;DHT22;28063;48.140;11.588;2022-07-23T02:21:12;19.80;95.00
42421;DHT22;28063;48.140;11.588;2022-07-23T02:23:38;19.70;96.60
42421;DHT22;28063;48.140;11.588;2022-07-23T02:26:04;19.40;98.60
42421;DHT22;28063;48.140;11.588;2022-07-23T02:28:29;19.10;99.90
42421;DHT22;28063;48.140;11.588;2022-07-23T02:33:21;18.30;99.90
42421;DHT22;28063;48.140;11.588;2022-07-23T02:35:47;17.90;99.90
42421;DHT22;28063;48.140;11.588;2022-07-23T02:38:13;17.60;99.90
42421;DHT22;28063;48.140;11.588;2022-07-23T02:40:38;17.50;99.90
42421;DHT22;28063;48.140;11.588;2022-07-23T02:43:04;17.40;99.90
42421;DHT22;28063;48.140;11.588;2022-07-23T02:45:30;17.30;99.90
42421;DHT22;28063;48.140;11.588;2022-07-23T02:47:55;17.40;99.90
42421;DHT22;28063;48.140;11.588;2022-07-23T02:50:21;17.30;99.90
42421;DHT22;28063;48.140;11.588;2022-07-23T02:52:47;17.40;99.90
42421;DHT22;28063;48.140;11.588;2022-07-23T02:55:13;17.60;99.90
42421;DHT22;28063;48.140;11.588;2022-07-23T02:57:38;17.70;99.90
42421;DHT22;28063;48.140;11.588;2022-07-23T03:00:06;17.90;99.90
42421;DHT22;28063;48.140;11.588;2022-07-23T03:02:32;18.00;99.90
42421;DHT22;28063;48.140;11.588;2022-07-23T03:04:58;18.10;99.90
42421;DHT22;28063;48.140;11.588;2022-07-23T03:07:23;18.20;99.90
42421;DHT22;28063;48.140;11.588;2022-07-23T03:09:49;18.30;99.90
42421;DHT22;28063;48.140;11.588;2022-07-23T03:12:15;18.30;99.90
42421;DHT22;28063;48.140;11.588;2022-07-23T03:14:41;18.30;99.90
42421;DHT22;28063;48.140;11.588;2022-07-23T03:17:07;18.40;99.90
42421;DHT22;28063;48.140;11.588;2022-07-23T03:19:33;18.50;99.90
42421;DHT22;28063;48.140;11.588;2022-07-23T03:21:59;18.60;99.90
42421;DHT22;28063;48.140;11.588;2022-07-23T03:24:24;18.70;99.90
42421;DHT22;28063;48.140;11.588;2022-07-23T03:27:10;18.70;99.90
42421;DHT22;28063;48.140;11.588;2022-07-23T03:29:36;18.80;99.90
42421;DHT22;28063;48.140;11.588;2022-07-23T03:32:03;18.80;99.90
42421;DHT22;28063;48.140;11.588;2022-07-23T03:34:29;18.90;99.90
42421;DHT22;28063;48.140;11.588;2022-07-23T03:36:55;18.90;99.90
42421;DHT22;28063;48.140;11.588;2022-07-23T03:39:20;18.90;99.90
42421;DHT22;28063;48.140;11.588;2022-07-23T03:41:46;19.00;99.90
42421;DHT22;28063;48.140;11.588;2022-07-23T03:44:12;18.90;99.90
42421;DHT22;28063;48.140;11.588;2022-07-23T03:46:37;18.90;99.90
42421;DHT22;28063;48.140;11.588;2022-07-23T03:49:03;19.00;99.90
42421;DHT22;28063;48.140;11.588;2022-07-23T03:51:28;19.00;99.90
42421;DHT22;28063;48.140;11.588;2022-07-23T03:53:54;19.00;99.90
42421;DHT22;28063;48.140;11.588;2022-07-23T03:56:22;19.00;99.90
42421;DHT22;28063;48.140;11.588;2022-07-23T03:58:48;19.00;99.90
42421;DHT22;28063;48.140;11.588;2022-07-23T04:01:14;19.00;99.90
42421;DHT22;28063;48.140;11.588;2022-07-23T04:03:39;19.10;99.90
42421;DHT22;28063;48.140;11.588;2022-07-23T04:06:06;19.10;99.90
42421;DHT22;28063;48.140;11.588;2022-07-23T04:08:32;19.20;99.90
42421;DHT22;28063;48.140;11.588;2022-07-23T04:10:57;19.20;99.90
42421;DHT22;28063;48.140;11.588;2022-07-23T04:13:23;19.20;99.90
42421;DHT22;28063;48.140;11.588;2022-07-23T04:15:49;19.30;99.90
42421;DHT22;28063;48.140;11.588;2022-07-23T04:18:16;19.30;99.90
42421;DHT22;28063;48.140;11.588;2022-07-23T04:20:43;19.30;99.90
42421;DHT22;28063;48.140;11.588;2022-07-23T04:23:09;19.40;99.90
42421;DHT22;28063;48.140;11.588;2022-07-23T04:25:35;19.40;99.90
42421;DHT22;28063;48.140;11.588;2022-07-23T04:28:00;19.40;99.90
42421;DHT22;28063;48.140;11.588;2022-07-23T04:30:26;19.40;99.90
42421;DHT22;28063;48.140;11.588;2022-07-23T04:32:52;19.50;99.90
42421;DHT22;28063;48.140;11.588;2022-07-23T04:35:17;19.50;99.90
42421;DHT22;28063;48.140;11.588;2022-07-23T04:37:43;19.50;99.90
42421;DHT22;28063;48.140;11.588;2022-07-23T04:40:09;19.60;99.90
42421;DHT22;28063;48.140;11.588;2022-07-23T04:42:35;19.60;99.90
42421;DHT22;28063;48.140;11.588;2022-07-23T04:45:01;19.60;99.90
42421;DHT22;28063;48.140;11.588;2022-07-23T04:47:26;19.70;99.90
42421;DHT22;28063;48.140;11.588;2022-07-23T04:49:52;19.70;99.90
42421;DHT22;28063;48.140;11.588;2022-07-23T04:52:18;19.70;99.90
42421;DHT22;28063;48.140;11.588;2022-07-23T04:54:43;19.70;99.90
42421;DHT22;28063;48.140;11.588;2022-07-23T04:57:09;19.70;99.90
42421;DHT22;28063;48.140;11.588;2022-07-23T04:59:35;19.70;99.90
42421;DHT22;28063;48.140;11.588;2022-07-23T05:02:00;19.80;99.90
42421;DHT22;28063;48.140;11.588;2022-07-23T05:04:26;19.90;99.90
42421;DHT22;28063;48.140;11.588;2022-07-23T05:06:51;19.90;99.90
42421;DHT22;28063;48.140;11.588;2022-07-23T05:09:17;19.90;99.90
42421;DHT22;28063;48.140;11.588;2022-07-23T05:11:43;20.00;99.90
42421;DHT22;28063;48.140;11.588;2022-07-23T05:14:08;20.00;99.90
42421;DHT22;28063;48.140;11.588;2022-07-23T05:16:34;20.00;99.90
42421;DHT22;28063;48.140;11.588;2022-07-23T05:19:00;20.10;99.90
42421;DHT22;28063;48.140;11.588;2022-07-23T05:21:25;20.10;99.90
42421;DHT22;28063;48.140;11.588;2022-07-23T05:23:51;20.10;99.90
42421;DHT22;28063;48.140;11.588;2022-07-23T05:26:17;20.10;99.90
42421;DHT22;28063;48.140;11.588;2022-07-23T05:28:42;20.00;99.90
42421;DHT22;28063;48.140;11.588;2022-07-23T05:31:08;20.00;99.90
42421;DHT22;28063;48.140;11.588;2022-07-23T05:33:34;20.00;99.90
42421;DHT22;28063;48.140;11.588;2022-07-23T05:36:03;20.00;99.90
42421;DHT22;28063;48.140;11.588;2022-07-23T05:38:29;19.90;99.90
42421;DHT22;28063;48.140;11.588;2022-07-23T05:40:56;19.90;99.90
42421;DHT22;28063;48.140;11.588;2022-07-23T05:43:21;19.90;99.90
42421;DHT22;28063;48.140;11.588;2022-07-23T05:45:47;19.90;99.90
42421;DHT22;28063;48.140;11.588;2022-07-23T05:48:12;20.00;99.90
42421;DHT22;28063;48.140;11.588;2022-07-23T05:50:38;20.00;99.90
42421;DHT22;28063;48.140;11.588;2022-07-23T05:53:04;20.10;99.90
42421;DHT22;28063;48.140;11.588;2022-07-23T05:55:29;20.10;99.90
42421;DHT22;28063;48.140;11.588;2022-07-23T05:57:58;20.20;99.90
42421;DHT22;28063;48.140;11.588;2022-07-23T06:00:25;20.20;99.90
42421;DHT22;28063;48.140;11.588;2022-07-23T06:02:51;20.30;99.90
42421;DHT22;28063;48.140;11.588;2022-07-23T06:05:17;20.30;99.90
42421;DHT22;28063;48.140;11.588;2022-07-23T06:07:43;20.40;99.90
42421;DHT22;28063;48.140;11.588;2022-07-23T06:10:09;20.40;99.90
42421;DHT22;28063;48.140;11.588;2022-07-23T06:12:35;20.40;99.90
42421;DHT22;28063;48.140;11.588;2022-07-23T06:15:01;20.50;99.90
42421;DHT22;28063;48.140;11.588;2022-07-23T06:17:27;20.60;99.90
42421;DHT22;28063;48.140;11.588;2022-07-23T06:19:53;20.60;99.90
42421;DHT22;28063;48.140;11.588;2022-07-23T06:22:19;20.70;99.90
42421;DHT22;28063;48.140;11.588;2022-07-23T06:24:45;20.60;99.90
42421;DHT22;28063;48.140;11.588;2022-07-23T06:27:10;20.60;99.90
42421;DHT22;28063;48.140;11.588;2022-07-23T06:29:36;20.60;99.90
42421;DHT22;28063;48.140;11.588;2022-07-23T06:32:01;20.60;99.90
42421;DHT22;28063;48.140;11.588;2022-07-23T06:34:27;20.70;99.90
42421;DHT22;28063;48.140;11.588;2022-07-23T06:36:53;20.70;99.90
42421;DHT22;28063;48.140;11.588;2022-07-23T06:39:19;20.70;99.90
42421;DHT22;28063;48.140;11.588;2022-07-23T06:41:45;20.70;99.90
42421;DHT22;28063;48.140;11.588;2022-07-23T06:44:10;20.80;99.90
42421;DHT22;28063;48.140;11.588;2022-07-23T06:46:36;20.80;99.90
42421;DHT22;28063;48.140;11.588;2022-07-23T06:49:02;20.80;99.90
42421;DHT22;28063;48.140;11.588;2022-07-23T06:51:29;20.80;99.90
42421;DHT22;28063;48.140;11.588;2022-07-23T06:53:55;20.80;99.90
42421;DHT22;28063;48.140;11.588;2022-07-23T06:56:20;20.90;99.90
42421;DHT22;28063;48.140;11.588;2022-07-23T06:58:46;20.90;99.90
42421;DHT22;28063;48.140;11.588;2022-07-23T07:01:12;21.00;99.90
42421;DHT22;28063;48.140;11.588;2022-07-23T07:03:37;21.10;99.90
42421;DHT22;28063;48.140;11.588;2022-07-23T07:06:03;21.20;99.90
42421;DHT22;28063;48.140;11.588;2022-07-23T07:08:29;21.40;99.90
42421;DHT22;28063;48.140;11.588;2022-07-23T07:10:55;21.40;99.90
42421;DHT22;28063;48.140;11.588;2022-07-23T07:13:20;21.40;99.90
42421;DHT22;28063;48.140;11.588;2022-07-23T07:15:46;21.50;99.90
42421;DHT22;28063;48.140;11.588;2022-07-23T07:18:11;21.50;99.90
42421;DHT22;28063;48.140;11.588;2022-07-23T07:20:37;21.40;99.90
42421;DHT22;28063;48.140;11.588;2022-07-23T07:23:03;21.50;99.90
42421;DHT22;28063;48.140;11.588;2022-07-23T07:25:28;21.50;99.90
42421;DHT22;28063;48.140;11.588;2022-07-23T07:27:54;21.60;99.90
42421;DHT22;28063;48.140;11.588;2022-07-23T07:30:20;21.60;99.90
42421;DHT22;28063;48.140;11.588;2022-07-23T07:32:45;21.70;99.90
42421;DHT22;28063;48.140;11.588;2022-07-23T07:35:11;21.80;99.90
42421;DHT22;28063;48.140;11.588;2022-07-23T07:37:37;21.90;99.90
42421;DHT22;28063;48.140;11.588;2022-07-23T07:40:03;22.00;99.90
42421;DHT22;28063;48.140;11.588;2022-07-23T07:42:29;22.00;99.90
42421;DHT22;28063;48.140;11.588;2022-07-23T07:44:54;22.00;99.90
42421;DHT22;28063;48.140;11.588;2022-07-23T07:47:20;21.90;99.90
42421;DHT22;28063;48.140;11.588;2022-07-23T07:49:46;22.00;99.90
42421;DHT22;28063;48.140;11.588;2022-07-23T07:52:11;22.00;99.90
42421;DHT22;28063;48.140;11.588;2022-07-23T07:54:37;22.00;99.90
42421;DHT22;28063;48.140;11.588;2022-07-23T07:57:03;22.00;99.90
42421;DHT22;28063;48.140;11.588;2022-07-23T07:59:28;22.10;99.90
42421;DHT22;28063;48.140;11.588;2022-07-23T08:01:54;22.20;99.90
42421;DHT22;28063;48.140;11.588;2022-07-23T08:04:20;22.20;99.90
42421;DHT22;28063;48.140;11.588;2022-07-23T08:06:46;22.30;99.90
42421;DHT22;28063;48.140;11.588;2022-07-23T08:09:11;22.40;99.90
42421;DHT22;28063;48.140;11.588;2022-07-23T08:11:37;22.50;99.90
42421;DHT22;28063;48.140;11.588;2022-07-23T08:14:03;22.50;99.90
42421;DHT22;28063;48.140;11.588;2022-07-23T08:16:28;22.50;99.60
42421;DHT22;28063;48.140;11.588;2022-07-23T08:18:54;22.50;98.70
42421;DHT22;28063;48.140;11.588;2022-07-23T08:21:20;22.50;98.40
42421;DHT22;28063;48.140;11.588;2022-07-23T08:23:45;22.60;97.70
42421;DHT22;28063;48.140;11.588;2022-07-23T08:26:11;22.60;97.10
42421;DHT22;28063;48.140;11.588;2022-07-23T08:28:37;22.80;96.60
42421;DHT22;28063;48.140;11.588;2022-07-23T08:31:03;22.90;95.70
42421;DHT22;28063;48.140;11.588;2022-07-23T08:33:30;23.00;95.10
42421;DHT22;28063;48.140;11.588;2022-07-23T08:35:56;23.20;94.70
42421;DHT22;28063;48.140;11.588;2022-07-23T08:38:22;23.30;94.00
42421;DHT22;28063;48.140;11.588;2022-07-23T08:40:50;23.30;93.40
42421;DHT22;28063;48.140;11.588;2022-07-23T08:43:24;23.50;93.00
42421;DHT22;28063;48.140;11.588;2022-07-23T08:45:53;23.60;91.90
42421;DHT22;28063;48.140;11.588;2022-07-23T08:48:21;24.00;91.30
42421;DHT22;28063;48.140;11.588;2022-07-23T08:50:49;24.30;90.40
42421;DHT22;28063;48.140;11.588;2022-07-23T08:53:16;24.50;89.00
42421;DHT22;28063;48.140;11.588;2022-07-23T08:55:49;24.60;87.90
42421;DHT22;28063;48.140;11.588;2022-07-23T08:58:15;24.70;89.20
42421;DHT22;28063;48.140;11.588;2022-07-23T09:00:41;24.80;85.80
42421;DHT22;28063;48.140;11.588;2022-07-23T09:03:07;24.70;84.70
42421;DHT22;28063;48.140;11.588;2022-07-23T09:05:39;24.70;84.60
42421;DHT22;28063;48.140;11.588;2022-07-23T09:08:16;24.70;84.40
42421;DHT22;28063;48.140;11.588;2022-07-23T09:10:54;24.80;86.20
42421;DHT22;28063;48.140;11.588;2022-07-23T09:15:53;24.80;83.80
42421;DHT22;28063;48.140;11.588;2022-07-23T09:18:19;24.80;84.20
42421;DHT22;28063;48.140;11.588;2022-07-23T09:20:45;24.70;84.50
42421;DHT22;28063;48.140;11.588;2022-07-23T09:23:10;24.70;85.10
42421;DHT22;28063;48.140;11.588;2022-07-23T09:25:36;24.70;80.60
42421;DHT22;28063;48.140;11.588;2022-07-23T09:28:02;24.90;80.60
42421;DHT22;28063;48.140;11.588;2022-07-23T09:30:32;25.10;79.60
42421;DHT22;28063;48.140;11.588;2022-07-23T09:33:07;25.30;79.20
42421;DHT22;28063;48.140;11.588;2022-07-23T09:35:53;25.60;79.40
42421;DHT22;28063;48.140;11.588;2022-07-23T09:38:24;25.90;78.20
42421;DHT22;28063;48.140;11.588;2022-07-23T09:41:10;26.10;76.70
42421;DHT22;28063;48.140;11.588;2022-07-23T09:43:36;26.20;75.50
42421;DHT22;28063;48.140;11.588;2022-07-23T09:46:22;26.40;75.30
42421;DHT22;28063;48.140;11.588;2022-07-23T09:48:50;26.70;73.70
42421;DHT22;28063;48.140;11.588;2022-07-23T09:51:17;26.80;72.70
42421;DHT22;28063;48.140;11.588;2022-07-23T09:54:00;27.00;72.20
42421;DHT22;28063;48.140;11.588;2022-07-23T09:56:27;27.20;71.40
42421;DHT22;28063;48.140;11.588;2022-07-23T09:58:53;27.50;67.80
42421;DHT22;28063;48.140;11.588;2022-07-23T10:01:31;27.80;66.30
42421;DHT22;28063;48.140;11.588;2022-07-23T10:03:57;28.00;65.20
42421;DHT22;28063;48.140;11.588;2022-07-23T10:06:24;28.20;63.70
42421;DHT22;28063;48.140;11.588;2022-07-23T10:08:51;28.00;64.00
42421;DHT22;28063;48.140;11.588;2022-07-23T10:11:19;27.90;63.60
42421;DHT22;28063;48.140;11.588;2022-07-23T10:16:26;28.10;60.50
42421;DHT22;28063;48.140;11.588;2022-07-23T10:18:52;28.40;60.10
42421;DHT22;28063;48.140;11.588;2022-07-23T10:21:48;28.80;58.60
42421;DHT22;28063;48.140;11.588;2022-07-23T10:27:35;29.20;57.30
42421;DHT22;28063;48.140;11.588;2022-07-23T10:30:11;29.30;57.20
42421;DHT22;28063;48.140;11.588;2022-07-23T10:37:50;29.40;55.70
42421;DHT22;28063;48.140;11.588;2022-07-23T10:40:36;29.50;55.80
42421;DHT22;28063;48.140;11.588;2022-07-23T10:57:48;29.20;55.90
42421;DHT22;28063;48.140;11.588;2022-07-23T11:00:25;29.30;54.60
42421;DHT22;28063;48.140;11.588;2022-07-23T11:02:54;29.30;53.70
42421;DHT22;28063;48.140;11.588;2022-07-23T11:05:23;29.30;54.30
42421;DHT22;28063;48.140;11.588;2022-07-23T11:23:59;28.90;54.10
42421;DHT22;28063;48.140;11.588;2022-07-23T11:32:06;28.70;55.30
42421;DHT22;28063;48.140;11.588;2022-07-23T11:37:05;28.40;55.80
42421;DHT22;28063;48.140;11.588;2022-07-23T11:39:31;28.20;56.00
42421;DHT22;28063;48.140;11.588;2022-07-23T11:41:59;28.10;56.50
42421;DHT22;28063;48.140;11.588;2022-07-23T11:44:30;28.00;56.50
42421;DHT22;28063;48.140;11.588;2022-07-23T11:46:56;27.80;57.00
42421;DHT22;28063;48.140;11.588;2022-07-23T11:49:22;27.70;57.30
42421;DHT22;28063;48.140;11.588;2022-07-23T11:52:08;27.60;57.30
42421;DHT22;28063;48.140;11.588;2022-07-23T11:54:36;27.60;57.50
42421;DHT22;28063;48.140;11.588;2022-07-23T11:57:02;27.70;56.90
42421;DHT22;28063;48.140;11.588;2022-07-23T11:59:33;27.60;57.40
42421;DHT22;28063;48.140;11.588;2022-07-23T12:02:01;27.60;57.40
42421;DHT22;28063;48.140;11.588;2022-07-23T12:04:44;27.60;57.70
42421;DHT22;28063;48.140;11.588;2022-07-23T12:09:48;27.40;58.40
42421;DHT22;28063;48.140;11.588;2022-07-23T12:12:14;27.30;58.60
42421;DHT22;28063;48.140;11.588;2022-07-23T12:14:54;27.10;59.40
42421;DHT22;28063;48.140;11.588;2022-07-23T12:17:21;27.00;59.70
42421;DHT22;28063;48.140;11.588;2022-07-23T12:19:51;26.90;59.90
42421;DHT22;28063;48.140;11.588;2022-07-23T12:22:18;26.90;60.50
42421;DHT22;28063;48.140;11.588;2022-07-23T12:25:01;26.80;60.90
42421;DHT22;28063;48.140;11.588;2022-07-23T12:27:30;26.80;61.20
42421;DHT22;28063;48.140;11.588;2022-07-23T12:29:55;26.70;61.60
42421;DHT22;28063;48.140;11.588;2022-07-23T12:32:30;26.70;61.40
42421;DHT22;28063;48.140;11.588;2022-07-23T12:35:06;26.60;61.90
42421;DHT22;28063;48.140;11.588;2022-07-23T12:37:41;26.50;62.50
42421;DHT22;28063;48.140;11.588;2022-07-23T12:40:29;26.50;62.50
42421;DHT22;28063;48.140;11.588;2022-07-23T12:43:23;26.40;62.80
42421;DHT22;28063;48.140;11.588;2022-07-23T12:45:52;26.40;63.30
42421;DHT22;28063;48.140;11.588;2022-07-23T12:48:29;26.40;63.20
42421;DHT22;28063;48.140;11.588;2022-07-23T12:51:00;26.40;62.70
42421;DHT22;28063;48.140;11.588;2022-07-23T12:56:03;26.40;62.80
42421;DHT22;28063;48.140;11.588;2022-07-23T12:58:49;26.40;62.80
42421;DHT22;28063;48.140;11.588;2022-07-23T13:06:30;26.50;62.70
42421;DHT22;28063;48.140;11.588;2022-07-23T13:08:56;26.70;62.40
42421;DHT22;28063;48.140;11.588;2022-07-23T13:11:23;26.90;62.30
42421;DHT22;28063;48.140;11.588;2022-07-23T13:13:49;27.10;61.80
42421;DHT22;28063;48.140;11.588;2022-07-23T13:16:15;27.30;61.40
42421;DHT22;28063;48.140;11.588;2022-07-23T13:18:41;27.40;61.00
42421;DHT22;28063;48.140;11.588;2022-07-23T13:21:07;27.40;60.60
42421;DHT22;28063;48.140;11.588;2022-07-23T13:23:34;27.40;60.80
42421;DHT22;28063;48.140;11.588;2022-07-23T13:25:59;27.40;60.40
42421;DHT22;28063;48.140;11.588;2022-07-23T13:28:25;27.30;60.90
42421;DHT22;28063;48.140;11.588;2022-07-23T13:30:51;27.10;61.60
42421;DHT22;28063;48.140;11.588;2022-07-23T13:33:19;27.00;61.90
42421;DHT22;28063;48.140;11.588;2022-07-23T13:35:45;26.90;62.10
42421;DHT22;28063;48.140;11.588;2022-07-23T13:38:12;26.80;62.80
42421;DHT22;28063;48.140;11.588;2022-07-23T13:40:40;26.80;63.20
42421;DHT22;28063;48.140;11.588;2022-07-23T13:43:09;26.80;63.30
42421;DHT22;28063;48.140;11.588;2022-07-23T13:45:35;27.00;63.00
42421;DHT22;28063;48.140;11.588;2022-07-23T13:48:02;27.30;63.00
42421;DHT22;28063;48.140;11.588;2022-07-23T13:50:28;28.00;61.20
42421;DHT22;28063;48.140;11.588;2022-07-23T13:52:54;28.40;60.60
42421;DHT22;28063;48.140;11.588;2022-07-23T13:55:19;28.40;59.50
42421;DHT22;28063;48.140;11.588;2022-07-23T13:57:45;28.20;59.40
42421;DHT22;28063;48.140;11.588;2022-07-23T14:00:11;27.90;60.90
42421;DHT22;28063;48.140;11.588;2022-07-23T14:02:38;27.60;61.00
42421;DHT22;28063;48.140;11.588;2022-07-23T14:05:09;27.30;61.70
42421;DHT22;28063;48.140;11.588;2022-07-23T14:07:36;27.00;62.40
42421;DHT22;28063;48.140;11.588;2022-07-23T14:10:04;26.90;62.80
42421;DHT22;28063;48.140;11.588;2022-07-23T14:12:30;26.70;63.30
42421;DHT22;28063;48.140;11.588;2022-07-23T14:14:57;26.60;63.50
42421;DHT22;28063;48.140;11.588;2022-07-23T14:17:23;26.40;64.10
42421;DHT22;28063;48.140;11.588;2022-07-23T14:19:48;26.30;64.50
42421;DHT22;28063;48.140;11.588;2022-07-23T14:22:14;26.10;64.70
42421;DHT22;28063;48.140;11.588;2022-07-23T14:24:43;26.10;65.10
42421;DHT22;28063;48.140;11.588;2022-07-23T14:27:09;26.10;65.20
42421;DHT22;28063;48.140;11.588;2022-07-23T14:29:35;26.20;65.10
42421;DHT22;28063;48.140;11.588;2022-07-23T14:32:04;26.10;64.60
42421;DHT22;28063;48.140;11.588;2022-07-23T14:34:30;26.20;64.50
42421;DHT22;28063;48.140;11.588;2022-07-23T14:36:59;26.20;64.60
42421;DHT22;28063;48.140;11.588;2022-07-23T14:39:25;26.40;64.60
42421;DHT22;28063;48.140;11.588;2022-07-23T14:41:51;26.60;63.10
42421;DHT22;28063;48.140;11.588;2022-07-23T14:44:17;26.80;62.90
42421;DHT22;28063;48.140;11.588;2022-07-23T14:46:43;26.90;62.80
42421;DHT22;28063;48.140;11.588;2022-07-23T14:49:09;27.00;62.60
42421;DHT22;28063;48.140;11.588;2022-07-23T14:51:35;27.00;62.10
42421;DHT22;28063;48.140;11.588;2022-07-23T14:54:02;27.20;62.80
42421;DHT22;28063;48.140;11.588;2022-07-23T14:56:28;27.90;62.10
42421;DHT22;28063;48.140;11.588;2022-07-23T14:58:54;28.50;60.20
42421;DHT22;28063;48.140;11.588;2022-07-23T15:01:22;28.80;58.70
42421;DHT22;28063;48.140;11.588;2022-07-23T15:03:49;28.70;58.60
42421;DHT22;28063;48.140;11.588;2022-07-23T15:06:17;28.50;59.00
42421;DHT22;28063;48.140;11.588;2022-07-23T15:08:43;28.20;59.80
42421;DHT22;28063;48.140;11.588;2022-07-23T15:11:09;28.00;59.80
42421;DHT22;28063;48.140;11.588;2022-07-23T15:13:36;27.70;60.80
42421;DHT22;28063;48.140;11.588;2022-07-23T15:16:03;27.40;61.30
42421;DHT22;28063;48.140;11.588;2022-07-23T15:18:29;27.20;62.30
42421;DHT22;28063;48.140;11.588;2022-07-23T15:20:55;27.20;62.60
42421;DHT22;28063;48.140;11.588;2022-07-23T15:23:21;27.50;62.30
42421;DHT22;28063;48.140;11.588;2022-07-23T15:25:47;27.90;61.40
42421;DHT22;28063;48.140;11.588;2022-07-23T15:28:12;28.20;60.20
42421;DHT22;28063;48.140;11.588;2022-07-23T15:30:38;28.20;60.10
42421;DHT22;28063;48.140;11.588;2022-07-23T15:33:05;28.10;60.70
42421;DHT22;28063;48.140;11.588;2022-07-23T15:35:31;27.90;61.00
42421;DHT22;28063;48.140;11.588;2022-07-23T15:37:57;28.00;61.20
42421;DHT22;28063;48.140;11.588;2022-07-23T15:40:23;28.00;60.90
42421;DHT22;28063;48.140;11.588;2022-07-23T15:42:49;28.00;60.90
42421;DHT22;28063;48.140;11.588;2022-07-23T15:45:14;28.00;60.90
42421;DHT22;28063;48.140;11.588;2022-07-23T15:47:40;28.20;60.50
42421;DHT22;28063;48.140;11.588;2022-07-23T15:50:07;28.50;59.80
42421;DHT22;28063;48.140;11.588;2022-07-23T15:52:33;28.70;59.80
42421;DHT22;28063;48.140;11.588;2022-07-23T15:54:59;28.90;59.30
42421;DHT22;28063;48.140;11.588;2022-07-23T15:57:24;29.00;59.00
42421;DHT22;28063;48.140;11.588;2022-07-23T15:59:50;29.10;58.30
42421;DHT22;28063;48.140;11.588;2022-07-23T16:02:16;28.90;58.70
42421;DHT22;28063;48.140;11.588;2022-07-23T16:04:43;28.80;58.60
42421;DHT22;28063;48.140;11.588;2022-07-23T16:07:08;28.70;59.20
42421;DHT22;28063;48.140;11.588;2022-07-23T16:09:34;28.60;59.40
42421;DHT22;28063;48.140;11.588;2022-07-23T16:12:00;28.40;59.60
42421;DHT22;28063;48.140;11.588;2022-07-23T16:14:26;28.20;59.90
42421;DHT22;28063;48.140;11.588;2022-07-23T16:16:52;28.00;60.70
42421;DHT22;28063;48.140;11.588;2022-07-23T16:19:17;28.00;61.20
42421;DHT22;28063;48.140;11.588;2022-07-23T16:21:43;28.00;61.00